Time;durP1;ratioP1;P1;durP2;ratioP2;P2;SDS_P1;SDS_P2;PMS_P1;PMS_P2;Temp;Humidity;BMP_temperature;BMP_pressure;BME280_temperature;BME280_humidity;BME280_pressure;Samples;Min_cycle;Max_cycle;Signal;HPM_P1;HPM_P2
2022/10/02 00:01:43;;;;;;;0.50;0.50;;;11.90;99.90;;;;;;5132694;28;20257;-79
2022/10/02 00:04:15;;;;;;;0.57;0.57;;;11.90;99.90;;;;;;5137429;28;20161;-80
2022/10/02 00:06:48;;;;;;;0.40;0.40;;;11.80;99.90;;;;;;5139159;28;20173;-80
2022/10/02 00:09:41;;;;;;;0.60;0.60;;;11.80;99.90;;;;;;5141155;28;20212;-80
2022/10/02 00:12:14;;;;;;;0.47;0.47;;;11.80;99.90;;;;;;5141501;28;20229;-80
2022/10/02 00:14:43;;;;;;;0.40;0.40;;;11.90;99.90;;;;;;5141378;27;20314;-80
2022/10/02 00:17:22;;;;;;;0.53;0.53;;;11.90;99.90;;;;;;5131663;28;20193;-81
2022/10/02 00:19:53;;;;;;;0.40;0.40;;;11.90;99.90;;;;;;5131448;28;20200;-81
2022/10/02 00:22:39;;;;;;;0.47;0.47;;;11.90;99.90;;;;;;5127815;28;20181;-81
2022/10/02 00:25:12;;;;;;;0.60;0.60;;;11.90;99.90;;;;;;5126229;28;20196;-81
2022/10/02 00:28:01;;;;;;;0.40;0.40;;;11.90;99.90;;;;;;5128878;28;20181;-79
2022/10/02 00:30:31;;;;;;;0.47;0.47;;;11.90;99.90;;;;;;5130047;28;20177;-78
2022/10/02 00:33:10;;;;;;;0.50;0.50;;;11.90;99.90;;;;;;5125838;28;20177;-77
2022/10/02 00:35:47;;;;;;;0.53;0.53;;;12.00;99.90;;;;;;5121290;28;20177;-77
2022/10/02 00:38:27;;;;;;;0.50;0.50;;;12.00;99.90;;;;;;5116418;28;20212;-77
2022/10/02 00:41:17;;;;;;;0.50;0.50;;;12.00;99.90;;;;;;5116849;28;20169;-78
2022/10/02 00:44:15;;;;;;;0.60;0.60;;;12.00;99.90;;;;;;5117513;28;20212;-77
2022/10/02 00:47:07;;;;;;;0.60;0.60;;;12.00;99.90;;;;;;5117525;28;20173;-76
2022/10/02 00:49:51;;;;;;;0.60;0.60;;;12.00;99.90;;;;;;5116406;28;20241;-76
2022/10/02 00:52:32;;;;;;;0.57;0.57;;;11.90;99.90;;;;;;5116112;28;20181;-77
2022/10/02 00:55:28;;;;;;;0.50;0.50;;;12.00;99.90;;;;;;5116790;28;20711;-77
2022/10/02 00:58:39;;;;;;;0.50;0.50;;;12.00;99.90;;;;;;5116714;28;20193;-80
2022/10/02 01:01:15;;;;;;;0.43;0.43;;;12.00;99.90;;;;;;5098754;27;20669;-77
2022/10/02 01:04:04;;;;;;;0.40;0.40;;;12.00;99.90;;;;;;5119583;28;20200;-78
2022/10/02 01:06:29;;;;;;;0.50;0.50;;;11.90;99.90;;;;;;5116748;28;20179;-77
2022/10/02 01:08:55;;;;;;;0.50;0.50;;;11.90;99.90;;;;;;5116116;28;20193;-78
2022/10/02 01:11:23;;;;;;;0.50;0.50;;;11.90;99.90;;;;;;5117838;28;20169;-80
2022/10/02 01:13:50;;;;;;;0.40;0.40;;;11.90;99.90;;;;;;5117027;28;20725;-78
2022/10/02 01:16:16;;;;;;;0.50;0.50;;;11.90;99.90;;;;;;5116423;28;20228;-79
2022/10/02 01:18:46;;;;;;;0.50;0.50;;;11.90;99.90;;;;;;5115988;28;20275;-78
2022/10/02 01:21:20;;;;;;;0.60;0.60;;;11.90;99.90;;;;;;5119415;28;20173;-77
2022/10/02 01:23:58;;;;;;;0.43;0.43;;;12.00;99.90;;;;;;5118341;28;20177;-77
2022/10/02 01:26:23;;;;;;;0.43;0.43;;;11.90;99.90;;;;;;5119619;28;20202;-77
2022/10/02 01:28:49;;;;;;;0.43;0.43;;;11.90;99.90;;;;;;5118268;28;20196;-78
2022/10/02 01:31:16;;;;;;;0.43;0.43;;;11.90;99.90;;;;;;5119566;28;20237;-77
2022/10/02 01:33:43;;;;;;;0.50;0.50;;;11.90;99.90;;;;;;5117481;28;20675;-77
2022/10/02 01:36:10;;;;;;;0.47;0.47;;;11.90;99.90;;;;;;5117930;28;20548;-80
2022/10/02 01:38:37;;;;;;;0.40;0.40;;;12.00;99.90;;;;;;5117606;28;20207;-77
2022/10/02 01:41:02;;;;;;;0.40;0.40;;;12.00;99.90;;;;;;5118499;28;20641;-78
2022/10/02 01:43:32;;;;;;;0.50;0.50;;;12.00;99.90;;;;;;5118235;28;20186;-78
2022/10/02 01:46:18;;;;;;;0.50;0.50;;;12.10;99.90;;;;;;5119527;28;20184;-77
2022/10/02 01:49:07;;;;;;;0.40;0.40;;;12.10;99.90;;;;;;5118017;28;20193;-78
2022/10/02 01:51:47;;;;;;;0.50;0.50;;;12.10;99.90;;;;;;5118370;28;20213;-77
2022/10/02 01:54:55;;;;;;;0.40;0.40;;;12.20;99.90;;;;;;5119670;28;20744;-80
2022/10/02 01:57:51;;;;;;;0.50;0.50;;;12.20;99.90;;;;;;5121608;28;20252;-80
2022/10/02 02:00:19;;;;;;;0.50;0.50;;;12.20;99.90;;;;;;5119415;28;20637;-79
2022/10/02 02:02:56;;;;;;;0.50;0.50;;;12.20;99.90;;;;;;5119735;28;20169;-80
2022/10/02 02:05:54;;;;;;;0.60;0.60;;;12.20;99.90;;;;;;5119906;28;20198;-80
2022/10/02 02:08:36;;;;;;;0.40;0.40;;;12.10;99.90;;;;;;5120518;28;20665;-79
2022/10/02 02:11:01;;;;;;;0.50;0.50;;;12.10;99.90;;;;;;5119063;28;20657;-77
2022/10/02 02:13:57;;;;;;;0.60;0.60;;;12.10;99.90;;;;;;5119338;28;20300;-79
2022/10/02 02:16:39;;;;;;;0.40;0.40;;;12.10;99.90;;;;;;5112868;28;20181;-80
2022/10/02 02:19:30;;;;;;;0.50;0.50;;;12.10;99.90;;;;;;5109417;28;20204;-80
2022/10/02 02:22:02;;;;;;;0.40;0.40;;;12.20;99.90;;;;;;5116792;28;20181;-79
2022/10/02 02:24:37;;;;;;;0.40;0.40;;;12.20;99.90;;;;;;5116356;28;20200;-79
2022/10/02 02:27:04;;;;;;;0.47;0.47;;;12.20;99.90;;;;;;5117644;28;20633;-80
2022/10/02 02:29:34;;;;;;;0.40;0.40;;;12.20;99.90;;;;;;5117468;28;20220;-79
2022/10/02 02:32:04;;;;;;;0.40;0.40;;;12.30;99.90;;;;;;5114489;28;20177;-78
2022/10/02 02:34:38;;;;;;;0.40;0.40;;;12.30;99.90;;;;;;5118670;28;20673;-79
2022/10/02 02:37:10;;;;;;;0.47;0.47;;;12.30;99.90;;;;;;5117956;28;20185;-78
2022/10/02 02:39:51;;;;;;;0.40;0.40;;;12.40;99.90;;;;;;5117395;28;20208;-80
2022/10/02 02:42:21;;;;;;;0.40;0.40;;;12.40;99.90;;;;;;5118190;28;20231;-79
2022/10/02 02:44:56;;;;;;;0.50;0.50;;;12.40;99.90;;;;;;5117103;28;20266;-80
2022/10/02 02:47:31;;;;;;;0.40;0.40;;;12.40;99.90;;;;;;5121436;28;20173;-80
2022/10/02 02:50:34;;;;;;;0.43;0.43;;;12.40;99.90;;;;;;5121119;28;20641;-80
2022/10/02 02:53:12;;;;;;;0.50;0.50;;;12.50;99.90;;;;;;5101883;28;20282;-79
2022/10/02 02:55:52;;;;;;;0.43;0.43;;;12.50;99.90;;;;;;5137985;28;20179;-81
2022/10/02 02:58:40;;;;;;;0.40;0.40;;;12.50;99.90;;;;;;5137108;28;20308;-81
2022/10/02 03:01:06;;;;;;;0.50;0.50;;;12.40;99.90;;;;;;5137405;28;20196;-81
2022/10/02 03:03:32;;;;;;;0.60;0.60;;;12.40;99.90;;;;;;5137241;28;20161;-81
2022/10/02 03:06:05;;;;;;;0.47;0.47;;;12.40;99.90;;;;;;5137167;28;20193;-80
2022/10/02 03:08:35;;;;;;;0.40;0.40;;;12.50;99.90;;;;;;5136873;28;20197;-80
2022/10/02 03:11:22;;;;;;;0.40;0.40;;;12.50;99.90;;;;;;5136801;28;20180;-80
2022/10/02 03:14:08;;;;;;;0.43;0.43;;;12.40;99.90;;;;;;5126790;28;20375;-81
2022/10/02 03:16:48;;;;;;;0.57;0.57;;;12.30;99.90;;;;;;5132116;28;20192;-81
2022/10/02 03:19:30;;;;;;;0.70;0.70;;;12.30;99.90;;;;;;5132796;28;20203;-81
2022/10/02 03:22:11;;;;;;;0.43;0.43;;;12.20;99.90;;;;;;5134175;28;20176;-81
2022/10/02 03:24:45;;;;;;;0.50;0.50;;;12.20;99.90;;;;;;5129550;28;20268;-81
2022/10/02 03:27:23;;;;;;;0.47;0.47;;;12.30;99.90;;;;;;5119491;28;20173;-81
2022/10/02 03:29:58;;;;;;;0.40;0.40;;;12.20;99.90;;;;;;5122701;28;20218;-81
2022/10/02 03:32:25;;;;;;;0.40;0.40;;;12.20;99.90;;;;;;5118393;28;20267;-81
2022/10/02 03:34:51;;;;;;;0.53;0.53;;;12.20;99.90;;;;;;5125953;28;20201;-81
2022/10/02 03:37:17;;;;;;;0.40;0.40;;;12.20;99.90;;;;;;5123400;28;20176;-81
2022/10/02 03:39:43;;;;;;;0.40;0.40;;;12.10;99.90;;;;;;5125064;28;20197;-80
2022/10/02 03:42:12;;;;;;;0.40;0.40;;;12.10;99.90;;;;;;5126706;28;20198;-81
2022/10/02 03:44:37;;;;;;;0.50;0.50;;;12.40;99.90;;;;;;5186909;22;20237;-75
2022/10/02 03:47:03;;;;;;;0.50;0.50;;;12.10;99.90;;;;;;5071511;28;20178;-75
2022/10/02 03:49:28;;;;;;;0.43;0.43;;;12.10;99.90;;;;;;5087677;28;20637;-74
2022/10/02 03:51:54;;;;;;;0.50;0.50;;;12.20;99.90;;;;;;5092002;28;20178;-75
2022/10/02 03:54:20;;;;;;;0.47;0.47;;;12.20;99.90;;;;;;5091386;28;20580;-75
2022/10/02 03:56:56;;;;;;;0.60;0.60;;;12.20;99.90;;;;;;5091667;28;20177;-75
2022/10/02 03:59:47;;;;;;;0.50;0.50;;;12.20;99.90;;;;;;5091016;28;20197;-73
2022/10/02 04:02:40;;;;;;;0.60;0.60;;;12.20;99.90;;;;;;5091845;28;20264;-70
2022/10/02 04:05:27;;;;;;;0.40;0.40;;;12.10;99.90;;;;;;5081458;28;20184;-70
2022/10/02 04:08:03;;;;;;;0.50;0.50;;;12.10;99.90;;;;;;5091332;28;20721;-73
2022/10/02 04:10:47;;;;;;;0.50;0.50;;;12.10;99.90;;;;;;5091258;28;20180;-71
2022/10/02 04:13:31;;;;;;;0.50;0.50;;;12.20;99.90;;;;;;5091349;28;20197;-71
2022/10/02 04:16:00;;;;;;;0.47;0.47;;;12.20;99.90;;;;;;5091542;28;20782;-70
2022/10/02 04:18:33;;;;;;;0.50;0.50;;;11.90;99.90;;;;;;5090772;28;20245;-70
2022/10/02 04:21:05;;;;;;;0.53;0.53;;;12.20;99.90;;;;;;5091314;28;20184;-70
2022/10/02 04:23:49;;;;;;;0.50;0.50;;;12.20;99.90;;;;;;5091410;28;20408;-71
2022/10/02 04:26:21;;;;;;;0.50;0.50;;;12.30;99.90;;;;;;5091321;28;20198;-71
2022/10/02 04:28:54;;;;;;;0.50;0.50;;;12.30;99.90;;;;;;5090597;28;20665;-71
2022/10/02 04:31:19;;;;;;;0.60;0.60;;;12.30;99.90;;;;;;5091090;28;20638;-70
2022/10/02 04:33:45;;;;;;;0.50;0.50;;;12.30;99.90;;;;;;5091282;28;20209;-71
2022/10/02 04:36:31;;;;;;;0.40;0.40;;;12.30;99.90;;;;;;5090931;28;20538;-71
2022/10/02 04:39:15;;;;;;;0.50;0.50;;;12.30;99.90;;;;;;5090556;28;20190;-71
2022/10/02 04:42:42;;;;;;;0.50;0.50;;;12.20;99.90;;;;;;5090823;28;20327;-71
2022/10/02 04:45:39;;;;;;;0.50;0.50;;;12.20;99.90;;;;;;5008486;28;20203;-71
2022/10/02 04:48:07;;;;;;;0.60;0.60;;;12.20;99.90;;;;;;5090480;28;20220;-71
2022/10/02 04:50:55;;;;;;;0.40;0.40;;;12.20;99.90;;;;;;5091141;28;20162;-71
2022/10/02 04:53:58;;;;;;;0.60;0.60;;;12.20;99.90;;;;;;5091650;28;20209;-71
2022/10/02 04:56:51;;;;;;;0.50;0.50;;;12.10;99.90;;;;;;5094825;28;20181;-71
2022/10/02 04:59:16;;;;;;;0.60;0.60;;;12.20;99.90;;;;;;5094064;28;20272;-71
2022/10/02 05:02:00;;;;;;;0.50;0.50;;;12.20;99.90;;;;;;5094538;28;20599;-71
2022/10/02 05:04:42;;;;;;;0.60;0.60;;;12.20;99.90;;;;;;5094808;28;20196;-71
2022/10/02 05:07:44;;;;;;;0.43;0.43;;;12.20;99.90;;;;;;5094448;28;20220;-71
2022/10/02 05:10:30;;;;;;;0.50;0.50;;;12.20;99.90;;;;;;5094381;28;20711;-71
2022/10/02 05:13:13;;;;;;;0.50;0.50;;;12.20;99.90;;;;;;5093297;28;20181;-71
2022/10/02 05:16:00;;;;;;;0.50;0.50;;;12.20;99.90;;;;;;5094403;28;20174;-71
2022/10/02 05:18:48;;;;;;;0.50;0.50;;;12.10;99.90;;;;;;5093640;28;20201;-71
2022/10/02 05:21:59;;;;;;;0.70;0.70;;;12.00;99.90;;;;;;5052245;28;20273;-71
2022/10/02 05:24:47;;;;;;;0.40;0.40;;;12.00;99.90;;;;;;5062355;28;20242;-72
2022/10/02 05:27:37;;;;;;;0.60;0.60;;;11.90;99.90;;;;;;5093477;28;20174;-71
2022/10/02 05:30:11;;;;;;;0.50;0.50;;;11.80;99.90;;;;;;5094117;28;20231;-72
2022/10/02 05:33:01;;;;;;;0.50;0.50;;;11.80;99.90;;;;;;5093901;28;20192;-71
2022/10/02 05:36:09;;;;;;;0.60;0.60;;;11.70;99.90;;;;;;5093966;28;20177;-72
2022/10/02 05:38:58;;;;;;;0.50;0.50;;;11.70;99.90;;;;;;5053893;28;20198;-72
2022/10/02 05:41:26;;;;;;;0.40;0.40;;;11.70;99.90;;;;;;5093863;28;20177;-72
2022/10/02 05:44:01;;;;;;;0.40;0.40;;;11.70;99.90;;;;;;5093420;28;20216;-72
2022/10/02 05:46:40;;;;;;;0.50;0.50;;;11.60;99.90;;;;;;5093726;28;20181;-72
2022/10/02 05:49:14;;;;;;;0.57;0.57;;;11.60;99.90;;;;;;5093046;28;20197;-72
2022/10/02 05:51:52;;;;;;;0.50;0.50;;;11.60;99.90;;;;;;5093515;28;20181;-72
2022/10/02 05:54:51;;;;;;;0.50;0.50;;;11.70;99.90;;;;;;5093258;28;20210;-72
2022/10/02 05:57:40;;;;;;;0.60;0.60;;;11.70;99.90;;;;;;5093557;28;20200;-72
2022/10/02 06:00:20;;;;;;;0.40;0.40;;;11.70;99.90;;;;;;5093596;28;20259;-72
2022/10/02 06:02:58;;;;;;;0.50;0.50;;;11.70;99.90;;;;;;5094876;28;20170;-71
2022/10/02 06:05:32;;;;;;;0.40;0.40;;;11.70;99.90;;;;;;5095655;28;20182;-71
2022/10/02 06:08:01;;;;;;;0.50;0.50;;;11.70;99.90;;;;;;5093381;28;20197;-72
2022/10/02 06:10:33;;;;;;;0.53;0.53;;;11.80;99.90;;;;;;5093000;28;20257;-72
2022/10/02 06:13:12;;;;;;;0.50;0.50;;;11.80;99.90;;;;;;5093028;28;20253;-72
2022/10/02 06:15:51;;;;;;;0.60;0.60;;;11.80;99.90;;;;;;5093158;28;20542;-71
2022/10/02 06:18:25;;;;;;;0.60;0.60;;;11.80;99.90;;;;;;5092490;28;20275;-71
2022/10/02 06:21:14;;;;;;;0.50;0.50;;;11.90;99.90;;;;;;5092834;28;20628;-71
2022/10/02 06:23:45;;;;;;;0.70;0.70;;;11.90;99.90;;;;;;5054251;28;20189;-71
2022/10/02 06:26:21;;;;;;;0.50;0.50;;;11.90;99.90;;;;;;5092930;28;20185;-71
2022/10/02 06:29:01;;;;;;;0.60;0.60;;;11.90;99.90;;;;;;5092260;28;20193;-73
2022/10/02 06:31:26;;;;;;;0.50;0.50;;;11.90;99.90;;;;;;5092771;28;20193;-71
2022/10/02 06:33:52;;;;;;;0.50;0.50;;;11.90;99.90;;;;;;5092523;28;20248;-71
2022/10/02 06:36:35;;;;;;;0.60;0.60;;;12.00;99.90;;;;;;5092510;28;20185;-71
2022/10/02 06:39:18;;;;;;;0.50;0.50;;;12.00;99.90;;;;;;5092193;28;20201;-73
2022/10/02 06:42:09;;;;;;;0.50;0.50;;;12.00;99.90;;;;;;5092394;28;20526;-69
2022/10/02 06:44:50;;;;;;;0.47;0.47;;;12.10;99.90;;;;;;5091694;28;20193;-70
2022/10/02 06:47:22;;;;;;;0.50;0.50;;;12.20;99.90;;;;;;5092740;28;20170;-70
2022/10/02 06:50:26;;;;;;;0.50;0.50;;;12.20;99.90;;;;;;5092088;28;20209;-69
2022/10/02 06:53:17;;;;;;;0.50;0.50;;;12.20;99.90;;;;;;5092608;28;20193;-70
2022/10/02 06:55:52;;;;;;;0.50;0.50;;;12.30;99.90;;;;;;5100873;28;20185;-70
2022/10/02 06:58:51;;;;;;;0.60;0.60;;;12.40;99.90;;;;;;5103130;28;20192;-70
2022/10/02 07:02:00;;;;;;;0.60;0.60;;;12.40;99.90;;;;;;5112797;28;20180;-69
2022/10/02 07:04:59;;;;;;;0.50;0.50;;;12.40;99.90;;;;;;5109026;28;20535;-69
2022/10/02 07:07:40;;;;;;;0.60;0.60;;;12.40;99.90;;;;;;5097616;28;20170;-70
2022/10/02 07:10:24;;;;;;;0.50;0.50;;;12.40;99.90;;;;;;5098181;28;20166;-69
2022/10/02 07:13:16;;;;;;;0.60;0.60;;;12.40;99.90;;;;;;5099183;28;20170;-69
2022/10/02 07:16:07;;;;;;;0.70;0.70;;;12.40;99.90;;;;;;5111834;28;20189;-70
2022/10/02 07:19:03;;;;;;;0.40;0.40;;;12.50;99.90;;;;;;5111717;28;20246;-69
2022/10/02 07:22:08;;;;;;;0.57;0.57;;;12.40;99.90;;;;;;5112342;28;20173;-69
2022/10/02 07:24:42;;;;;;;0.57;0.57;;;12.50;99.90;;;;;;5109711;28;20165;-70
2022/10/02 07:27:24;;;;;;;0.60;0.60;;;12.50;99.90;;;;;;5106791;28;20546;-69
2022/10/02 07:29:59;;;;;;;0.70;0.70;;;12.60;99.90;;;;;;5111902;28;20274;-69
2022/10/02 07:32:37;;;;;;;0.53;0.53;;;12.60;99.90;;;;;;5102831;28;20177;-70
2022/10/02 07:35:13;;;;;;;0.47;0.47;;;12.60;99.90;;;;;;5099666;28;20237;-70
2022/10/02 07:38:06;;;;;;;0.57;0.57;;;12.60;99.90;;;;;;5090924;28;20518;-69
2022/10/02 07:41:00;;;;;;;0.50;0.50;;;12.50;99.90;;;;;;5089350;28;20185;-70
2022/10/02 07:43:48;;;;;;;0.53;0.53;;;12.60;99.90;;;;;;5091476;28;20181;-70
2022/10/02 07:46:28;;;;;;;0.50;0.50;;;12.50;99.90;;;;;;5091742;28;20177;-72
2022/10/02 07:49:24;;;;;;;0.50;0.50;;;12.50;99.90;;;;;;5089103;28;20193;-72
2022/10/02 07:51:53;;;;;;;0.50;0.50;;;12.50;99.90;;;;;;5089328;28;20177;-72
2022/10/02 07:54:27;;;;;;;0.43;0.43;;;12.60;99.90;;;;;;5091283;28;20213;-72
2022/10/02 07:56:57;;;;;;;0.60;0.60;;;12.60;99.90;;;;;;5091468;28;20582;-72
2022/10/02 07:59:23;;;;;;;0.50;0.50;;;12.70;99.90;;;;;;5090728;28;20277;-72
2022/10/02 08:01:50;;;;;;;0.50;0.50;;;12.70;99.90;;;;;;5091505;28;20292;-72
2022/10/02 08:04:23;;;;;;;0.50;0.50;;;12.70;99.90;;;;;;5091557;28;20176;-71
2022/10/02 08:06:55;;;;;;;0.50;0.50;;;12.80;99.90;;;;;;5090901;28;20602;-72
2022/10/02 08:09:30;;;;;;;0.47;0.47;;;12.80;99.90;;;;;;5090502;28;20224;-72
2022/10/02 08:12:18;;;;;;;0.40;0.40;;;12.80;99.90;;;;;;5091194;28;20170;-71
2022/10/02 08:14:45;;;;;;;0.50;0.50;;;12.80;99.90;;;;;;5091357;28;20560;-71
2022/10/02 08:17:34;;;;;;;0.60;0.60;;;12.90;99.90;;;;;;5091492;28;20201;-71
2022/10/02 08:20:21;;;;;;;0.50;0.50;;;13.00;99.90;;;;;;5091250;28;20170;-71
2022/10/02 08:22:56;;;;;;;0.60;0.60;;;13.00;99.90;;;;;;5091016;28;20575;-71
2022/10/02 08:25:30;;;;;;;0.50;0.50;;;13.00;99.90;;;;;;5091012;28;20189;-71
2022/10/02 08:28:22;;;;;;;0.50;0.50;;;13.10;99.90;;;;;;5090480;28;20545;-71
2022/10/02 08:30:47;;;;;;;0.43;0.43;;;13.10;99.90;;;;;;5097112;28;20673;-71
2022/10/02 08:33:17;;;;;;;0.40;0.40;;;13.20;99.90;;;;;;5102425;28;20170;-71
2022/10/02 08:35:49;;;;;;;0.40;0.40;;;13.20;99.90;;;;;;5099309;28;20182;-72
2022/10/02 08:38:45;;;;;;;0.50;0.50;;;13.30;99.90;;;;;;5096780;28;20197;-72
2022/10/02 08:41:32;;;;;;;0.60;0.60;;;13.30;99.90;;;;;;5108448;28;20528;-72
2022/10/02 08:44:34;;;;;;;0.50;0.50;;;13.30;99.90;;;;;;5100587;28;20659;-71
2022/10/02 08:47:41;;;;;;;0.40;0.40;;;13.30;99.90;;;;;;5094523;28;20177;-71
2022/10/02 08:50:50;;;;;;;0.50;0.50;;;13.40;99.90;;;;;;4991887;28;20388;-71
2022/10/02 08:53:45;;;;;;;0.60;0.60;;;13.40;99.90;;;;;;4992560;28;20177;-71
2022/10/02 08:56:21;;;;;;;0.50;0.50;;;13.50;99.90;;;;;;5070437;28;20187;-71
2022/10/02 08:59:23;;;;;;;0.50;0.50;;;13.70;99.90;;;;;;5073753;28;20195;-71
2022/10/02 09:02:26;;;;;;;0.50;0.50;;;13.90;99.90;;;;;;5043241;28;20205;-72
2022/10/02 09:05:00;;;;;;;0.50;0.50;;;14.50;99.90;;;;;;5074441;28;20186;-71
2022/10/02 09:07:35;;;;;;;0.50;0.50;;;15.00;99.90;;;;;;5073493;28;20188;-72
2022/10/02 09:10:27;;;;;;;0.50;0.50;;;15.80;99.90;;;;;;5085971;28;20542;-72
2022/10/02 09:13:22;;;;;;;0.40;0.40;;;15.90;99.90;;;;;;5101934;28;20176;-71
2022/10/02 09:16:08;;;;;;;0.40;0.40;;;15.50;99.90;;;;;;5044117;28;20190;-72
2022/10/02 09:19:02;;;;;;;0.43;0.43;;;15.40;99.90;;;;;;5074717;28;21361;-71
2022/10/02 09:21:55;;;;;;;0.50;0.50;;;15.40;99.90;;;;;;5078882;28;20235;-71
2022/10/02 09:24:55;;;;;;;0.40;0.40;;;15.60;99.90;;;;;;5090610;28;20182;-71
2022/10/02 09:27:59;;;;;;;0.40;0.40;;;15.70;99.90;;;;;;5091514;28;20197;-72
2022/10/02 09:30:46;;;;;;;0.40;0.40;;;15.90;99.90;;;;;;5090577;28;20809;-71
2022/10/02 09:33:31;;;;;;;0.40;0.40;;;16.10;99.90;;;;;;5091611;28;20458;-72
2022/10/02 09:36:17;;;;;;;0.40;0.40;;;16.10;99.90;;;;;;5101076;28;20173;-72
2022/10/02 09:39:08;;;;;;;0.40;0.40;;;15.90;99.90;;;;;;5099050;28;20203;-72
2022/10/02 09:41:52;;;;;;;0.40;0.40;;;15.90;99.90;;;;;;5095663;28;20171;-71
2022/10/02 09:45:03;;;;;;;0.47;0.47;;;16.20;99.90;;;;;;5097290;28;20186;-72
2022/10/02 09:47:42;;;;;;;0.50;0.50;;;16.00;99.90;;;;;;5092655;28;20177;-72
2022/10/02 09:50:29;;;;;;;0.37;0.37;;;16.00;99.90;;;;;;5188905;22;20233;-81
2022/10/02 09:53:43;;;;;;;0.37;0.37;;;15.80;99.90;;;;;;5076049;28;20193;-81
2022/10/02 09:56:46;;;;;;;0.40;0.40;;;15.80;99.90;;;;;;5053124;28;20586;-80
2022/10/02 09:59:36;;;;;;;0.40;0.40;;;15.80;99.90;;;;;;5057564;28;20200;-82
2022/10/02 10:02:39;;;;;;;0.30;0.30;;;15.80;99.90;;;;;;5063335;28;20175;-82
2022/10/02 10:05:22;;;;;;;0.50;0.50;;;15.80;99.90;;;;;;5058943;28;20175;-80
2022/10/02 10:08:18;;;;;;;0.30;0.30;;;15.80;99.90;;;;;;5045188;28;20253;-80
2022/10/02 10:10:59;;;;;;;0.37;0.37;;;15.80;99.90;;;;;;5034204;28;20211;-80
2022/10/02 10:13:54;;;;;;;0.40;0.40;;;15.90;99.90;;;;;;5055074;28;20204;-82
2022/10/02 10:16:53;;;;;;;0.50;0.50;;;15.40;99.90;;;;;;5052145;28;20190;-80
2022/10/02 10:19:58;;;;;;;0.50;0.50;;;15.20;99.90;;;;;;5066902;28;20191;-81
2022/10/02 10:22:42;;;;;;;0.40;0.40;;;15.20;99.90;;;;;;5058820;28;20212;-78
2022/10/02 10:25:29;;;;;;;0.60;0.60;;;15.20;99.90;;;;;;5058645;28;20183;-78
2022/10/02 10:28:16;;;;;;;0.30;0.30;;;14.90;99.90;;;;;;5065413;28;20214;-78
2022/10/02 10:31:38;;;;;;;0.40;0.40;;;14.60;99.90;;;;;;5065980;28;20524;-78
2022/10/02 10:34:22;;;;;;;0.40;0.40;;;14.50;99.90;;;;;;5027775;28;20318;-77
2022/10/02 10:39:53;;;;;;;0.70;0.70;;;14.40;99.90;;;;;;5039097;28;20226;-78
2022/10/02 10:42:44;;;;;;;0.40;0.40;;;14.50;99.90;;;;;;5046650;28;20178;-79
2022/10/02 10:45:28;;;;;;;0.53;0.53;;;14.60;99.90;;;;;;5045652;28;20237;-78
2022/10/02 10:48:23;;;;;;;0.30;0.30;;;14.50;99.90;;;;;;5046981;28;20427;-80
2022/10/02 10:50:59;;;;;;;0.40;0.40;;;14.50;99.90;;;;;;5045267;28;20680;-79
2022/10/02 10:53:39;;;;;;;0.40;0.40;;;14.40;99.90;;;;;;5045560;28;20202;-80
2022/10/02 10:56:28;;;;;;;0.40;0.40;;;14.40;99.90;;;;;;5044878;28;20187;-80
2022/10/02 10:59:21;;;;;;;0.40;0.40;;;14.40;99.90;;;;;;5051025;28;20695;-79
2022/10/02 11:02:02;;;;;;;0.40;0.40;;;14.60;99.90;;;;;;5044452;28;20346;-81
2022/10/02 11:04:51;;;;;;;0.40;0.40;;;14.50;99.90;;;;;;5052660;28;20258;-77
2022/10/02 11:07:39;;;;;;;0.50;0.50;;;14.40;99.90;;;;;;5048807;28;20187;-80
2022/10/02 11:10:36;;;;;;;0.40;0.40;;;14.40;99.90;;;;;;5052719;28;20179;-79
2022/10/02 11:13:22;;;;;;;0.53;0.53;;;14.20;99.90;;;;;;5044371;28;20194;-79
2022/10/02 11:16:21;;;;;;;0.40;0.40;;;14.30;99.90;;;;;;5059737;28;20592;-79
2022/10/02 11:19:03;;;;;;;0.40;0.40;;;14.40;99.90;;;;;;5063048;28;20311;-79
2022/10/02 11:22:02;;;;;;;0.50;0.50;;;14.40;99.90;;;;;;5059525;28;20167;-79
2022/10/02 11:24:56;;;;;;;0.50;0.50;;;14.20;99.90;;;;;;5061456;28;20278;-79
2022/10/02 11:27:41;;;;;;;0.40;0.40;;;14.30;99.90;;;;;;5059592;28;20302;-80
2022/10/02 11:30:37;;;;;;;0.50;0.50;;;14.30;99.90;;;;;;5050638;28;20548;-80
2022/10/02 11:33:20;;;;;;;0.37;0.37;;;14.30;99.90;;;;;;5059679;28;20183;-80
2022/10/02 11:36:11;;;;;;;0.50;0.50;;;14.30;99.90;;;;;;5059555;28;20780;-80
2022/10/02 11:38:53;;;;;;;0.50;0.50;;;14.40;99.90;;;;;;5045810;28;20199;-82
2022/10/02 11:41:58;;;;;;;0.40;0.40;;;14.40;99.90;;;;;;5034104;28;20225;-79
2022/10/02 11:45:03;;;;;;;0.50;0.50;;;14.40;99.90;;;;;;5033968;28;20261;-79
2022/10/02 11:48:07;;;;;;;0.50;0.50;;;14.40;99.90;;;;;;5036409;28;20176;-80
2022/10/02 11:50:48;;;;;;;0.50;0.50;;;14.30;99.90;;;;;;5054019;28;20190;-80
2022/10/02 11:53:36;;;;;;;0.50;0.50;;;14.30;99.90;;;;;;5053753;28;20663;-80
2022/10/02 11:56:31;;;;;;;0.40;0.40;;;14.40;99.90;;;;;;5054615;28;20194;-80
2022/10/02 11:59:02;;;;;;;0.40;0.40;;;14.40;99.90;;;;;;5052053;28;20199;-80
2022/10/02 12:01:36;;;;;;;0.30;0.30;;;14.20;99.90;;;;;;5053642;28;20191;-79
2022/10/02 12:04:19;;;;;;;0.40;0.40;;;14.00;99.90;;;;;;5058154;28;20183;-79
2022/10/02 12:07:13;;;;;;;0.50;0.50;;;14.00;99.90;;;;;;5052489;28;20175;-80
2022/10/02 12:10:04;;;;;;;0.40;0.40;;;14.00;99.90;;;;;;5042754;28;20201;-80
2022/10/02 12:12:50;;;;;;;0.30;0.30;;;13.90;99.90;;;;;;5050474;28;20618;-80
2022/10/02 12:15:21;;;;;;;0.50;0.50;;;13.80;99.90;;;;;;5050377;28;20211;-80
2022/10/02 12:18:30;;;;;;;0.50;0.50;;;13.90;99.90;;;;;;5057116;28;20187;-80
2022/10/02 12:27:35;;;;;;;0.40;0.40;;;13.90;99.90;;;;;;5050788;28;20207;-79
2022/10/02 12:30:14;;;;;;;0.40;0.40;;;13.80;99.90;;;;;;5050428;28;20195;-81
2022/10/02 12:33:06;;;;;;;0.40;0.40;;;13.70;99.90;;;;;;5056249;28;20186;-81
2022/10/02 12:35:46;;;;;;;0.40;0.40;;;13.80;99.90;;;;;;5042168;28;20228;-81
2022/10/02 12:38:36;;;;;;;0.50;0.50;;;13.80;99.90;;;;;;5054648;28;20236;-82
2022/10/02 12:41:07;;;;;;;0.40;0.40;;;13.60;99.90;;;;;;5061404;28;20224;-81
2022/10/02 12:43:52;;;;;;;0.30;0.30;;;13.60;99.90;;;;;;5067616;28;20175;-81
2022/10/02 12:46:24;;;;;;;0.40;0.40;;;13.50;99.90;;;;;;5068281;28;20277;-82
2022/10/02 12:48:56;;;;;;;0.50;0.50;;;13.40;99.90;;;;;;5060322;28;20238;-80
2022/10/02 12:51:56;;;;;;;0.50;0.50;;;13.40;99.90;;;;;;5060967;28;20206;-81
2022/10/02 12:54:43;;;;;;;0.50;0.50;;;13.40;99.90;;;;;;5071604;28;20418;-81
2022/10/02 12:57:51;;;;;;;0.47;0.47;;;13.40;99.90;;;;;;5074703;28;20195;-81
2022/10/02 13:00:42;;;;;;;0.40;0.40;;;13.40;99.90;;;;;;5072466;28;20191;-81
2022/10/02 13:03:26;;;;;;;0.50;0.50;;;13.50;99.90;;;;;;5064917;28;20203;-80
2022/10/02 13:06:16;;;;;;;0.40;0.40;;;13.50;99.90;;;;;;5054930;28;20644;-80
2022/10/02 13:08:53;;;;;;;0.47;0.47;;;13.40;99.90;;;;;;5039723;28;20208;-80
2022/10/02 13:11:47;;;;;;;0.40;0.40;;;13.40;99.90;;;;;;5054942;28;20186;-80
2022/10/02 13:14:51;;;;;;;0.50;0.50;;;13.30;99.90;;;;;;5045143;28;20298;-79
2022/10/02 13:17:35;;;;;;;0.50;0.50;;;13.30;99.90;;;;;;5054590;28;20174;-79
2022/10/02 13:20:18;;;;;;;0.53;0.53;;;13.30;99.90;;;;;;5054947;28;20183;-79
2022/10/02 13:22:50;;;;;;;0.47;0.47;;;13.30;99.90;;;;;;5053709;28;20192;-79
2022/10/02 13:25:49;;;;;;;0.40;0.40;;;13.30;99.90;;;;;;5050444;28;20234;-80
2022/10/02 13:28:35;;;;;;;0.30;0.30;;;13.20;99.90;;;;;;5052053;28;20213;-81
2022/10/02 13:31:20;;;;;;;0.60;0.60;;;13.20;99.90;;;;;;5047291;28;20194;-80
2022/10/02 13:34:11;;;;;;;0.40;0.40;;;13.20;99.90;;;;;;5042978;28;20207;-79
2022/10/02 13:36:50;;;;;;;0.50;0.50;;;13.20;99.90;;;;;;5047864;28;20266;-80
2022/10/02 13:39:34;;;;;;;0.50;0.50;;;13.30;99.90;;;;;;5053106;28;20191;-81
2022/10/02 13:42:13;;;;;;;0.47;0.47;;;13.30;99.90;;;;;;5053029;28;20240;-81
2022/10/02 13:45:09;;;;;;;0.50;0.50;;;13.30;99.90;;;;;;5053994;28;20267;-82
2022/10/02 13:47:39;;;;;;;0.40;0.40;;;13.60;99.90;;;;;;5052663;28;20265;-81
2022/10/02 13:50:10;;;;;;;0.40;0.40;;;13.60;99.90;;;;;;5052994;28;20257;-81
2022/10/02 13:52:45;;;;;;;0.47;0.47;;;14.00;99.90;;;;;;5052902;28;20199;-79
2022/10/02 13:55:29;;;;;;;0.50;0.50;;;14.40;99.90;;;;;;5052858;28;20245;-79
2022/10/02 13:58:20;;;;;;;0.40;0.40;;;14.50;99.90;;;;;;5052206;28;20199;-79
2022/10/02 14:00:57;;;;;;;0.40;0.40;;;14.60;99.90;;;;;;5052632;28;20178;-80
2022/10/02 14:03:44;;;;;;;0.40;0.40;;;14.70;99.90;;;;;;5052830;28;20238;-81
2022/10/02 14:06:33;;;;;;;0.40;0.40;;;14.70;99.90;;;;;;5048176;28;20238;-81
2022/10/02 14:09:11;;;;;;;0.50;0.50;;;14.60;99.90;;;;;;5052438;28;20551;-80
2022/10/02 14:11:51;;;;;;;0.33;0.33;;;14.30;99.90;;;;;;5053779;28;20632;-81
2022/10/02 14:14:28;;;;;;;0.50;0.50;;;14.20;99.90;;;;;;5053065;28;20210;-81
2022/10/02 14:17:07;;;;;;;0.40;0.40;;;14.30;99.90;;;;;;5053056;28;20189;-79
2022/10/02 14:19:55;;;;;;;0.40;0.40;;;14.10;99.90;;;;;;5052132;28;20199;-81